logo
Search for airport 
image banner adimage banner adimage banner ad
image banner ad

EDXBRO - Brodau

Located in , Germany

ICAO - , IATA -

Data provided by Airmate  

General information

Coordinates: N51°29'56" E12°19'48"
Elevation is 334 feet MSL.
 
View others Airports in Saxony

Operational data

Special qualification required
Current time UTC:
Current local time:
Weather at : EDDP - Leipzig/Halle ( 11 km )
METAR: EDDP 241220Z AUTO 30008KT 250V340 9999 -SHRA SCT029 BKN044 FEW///CB 19/15 Q1018 NOSIG
TAF: TAF EDDP 241100Z 2412/2512 32010KT 9999 SCT040 PROB40 TEMPO 2412/2414 31015G25KT SHRA BKN020TCU BECMG 2418/2420 31004KT
View NOTAMs / SUP AIP / TFR affecting this airport [VIEW]
Communications frequencies: [VIEW]

Runways:

RWY identifierQFULength (ft)Width (ft)SurfaceLDA (ft)
0198°147666GRASS
19278°147666GRASS

Airport contact information

Address: Germany

Satellite view of EDXBRO